sensor_id;sensor_type;location;lat;lon;timestamp;pressure;altitude;pressure_sealevel;temperature;humidity
50057;BME280;36875;49.468;11.200;2024-03-25T00:00:56;96921.81;;;24.29;39.92
50057;BME280;36875;49.468;11.200;2024-03-25T00:03:21;96915.03;;;24.23;39.67
50057;BME280;36875;49.468;11.200;2024-03-25T00:05:47;96906.22;;;24.14;39.71
50057;BME280;36875;49.468;11.200;2024-03-25T00:08:12;96920.69;;;24.11;39.83
50057;BME280;36875;49.468;11.200;2024-03-25T00:10:38;96917.00;;;24.03;40.15
50057;BME280;36875;49.468;11.200;2024-03-25T00:13:05;96917.34;;;24.01;40.01
50057;BME280;36875;49.468;11.200;2024-03-25T00:15:30;96910.22;;;23.97;40.07
50057;BME280;36875;49.468;11.200;2024-03-25T00:17:56;96918.75;;;23.92;39.89
50057;BME280;36875;49.468;11.200;2024-03-25T00:20:21;96910.16;;;23.93;39.94
50057;BME280;36875;49.468;11.200;2024-03-25T00:22:47;96911.13;;;23.85;40.04
50057;BME280;36875;49.468;11.200;2024-03-25T00:25:12;96909.91;;;23.82;39.80
50057;BME280;36875;49.468;11.200;2024-03-25T00:27:38;96908.94;;;23.75;40.33
50057;BME280;36875;49.468;11.200;2024-03-25T00:30:06;96915.88;;;23.68;40.40
50057;BME280;36875;49.468;11.200;2024-03-25T00:32:32;96908.72;;;23.64;40.05
50057;BME280;36875;49.468;11.200;2024-03-25T00:34:57;96910.72;;;23.67;40.29
50057;BME280;36875;49.468;11.200;2024-03-25T00:37:24;96910.50;;;23.56;40.45
50057;BME280;36875;49.468;11.200;2024-03-25T00:39:50;96903.41;;;23.55;40.03
50057;BME280;36875;49.468;11.200;2024-03-25T00:42:15;96913.91;;;23.50;40.24
50057;BME280;36875;49.468;11.200;2024-03-25T00:44:41;96916.47;;;23.42;40.45
50057;BME280;36875;49.468;11.200;2024-03-25T00:47:08;96915.25;;;23.40;40.39
50057;BME280;36875;49.468;11.200;2024-03-25T00:49:33;96909.75;;;23.40;40.51
50057;BME280;36875;49.468;11.200;2024-03-25T00:52:00;96907.72;;;23.37;40.45
50057;BME280;36875;49.468;11.200;2024-03-25T00:54:25;96906.41;;;23.31;40.32
50057;BME280;36875;49.468;11.200;2024-03-25T00:56:51;96914.28;;;23.32;40.47
50057;BME280;36875;49.468;11.200;2024-03-25T00:59:16;96905.88;;;23.25;40.39
50057;BME280;36875;49.468;11.200;2024-03-25T01:01:42;96909.00;;;23.23;40.46
50057;BME280;36875;49.468;11.200;2024-03-25T01:04:11;96907.31;;;23.19;40.39
50057;BME280;36875;49.468;11.200;2024-03-25T01:06:36;96901.28;;;23.13;40.49
50057;BME280;36875;49.468;11.200;2024-03-25T01:09:03;96911.47;;;23.13;40.38
50057;BME280;36875;49.468;11.200;2024-03-25T01:11:29;96911.41;;;23.09;40.51
50057;BME280;36875;49.468;11.200;2024-03-25T01:13:55;96903.09;;;23.05;40.31
50057;BME280;36875;49.468;11.200;2024-03-25T01:16:20;96903.75;;;23.02;40.75
50057;BME280;36875;49.468;11.200;2024-03-25T01:18:49;96902.53;;;23.00;40.55
50057;BME280;36875;49.468;11.200;2024-03-25T01:21:16;96903.22;;;22.97;40.55
50057;BME280;36875;49.468;11.200;2024-03-25T01:23:41;96915.72;;;22.94;40.49
50057;BME280;36875;49.468;11.200;2024-03-25T01:26:07;96906.25;;;22.91;40.30
50057;BME280;36875;49.468;11.200;2024-03-25T01:28:32;96902.44;;;22.80;40.76
50057;BME280;36875;49.468;11.200;2024-03-25T01:30:58;96903.94;;;22.78;40.67
50057;BME280;36875;49.468;11.200;2024-03-25T01:33:23;96908.63;;;22.77;40.56
50057;BME280;36875;49.468;11.200;2024-03-25T01:35:49;96911.38;;;22.77;40.47
50057;BME280;36875;49.468;11.200;2024-03-25T01:38:16;96914.03;;;22.74;40.57
50057;BME280;36875;49.468;11.200;2024-03-25T01:40:41;96902.59;;;22.71;40.75
50057;BME280;36875;49.468;11.200;2024-03-25T01:43:06;96906.06;;;22.68;40.66
50057;BME280;36875;49.468;11.200;2024-03-25T01:45:33;96905.53;;;22.63;40.46
50057;BME280;36875;49.468;11.200;2024-03-25T01:48:02;96910.59;;;22.61;40.72
50057;BME280;36875;49.468;11.200;2024-03-25T01:50:31;96915.50;;;22.55;40.64
50057;BME280;36875;49.468;11.200;2024-03-25T01:52:58;96914.72;;;22.55;40.54
50057;BME280;36875;49.468;11.200;2024-03-25T01:55:27;96911.88;;;22.51;40.81
50057;BME280;36875;49.468;11.200;2024-03-25T01:57:53;96911.88;;;22.51;40.61
50057;BME280;36875;49.468;11.200;2024-03-25T02:00:20;96921.19;;;22.46;40.74
50057;BME280;36875;49.468;11.200;2024-03-25T02:02:45;96915.25;;;22.44;40.64
50057;BME280;36875;49.468;11.200;2024-03-25T02:05:12;96921.44;;;22.41;40.87
50057;BME280;36875;49.468;11.200;2024-03-25T02:07:38;96915.84;;;22.38;40.54
50057;BME280;36875;49.468;11.200;2024-03-25T02:10:07;96925.09;;;22.33;40.53
50057;BME280;36875;49.468;11.200;2024-03-25T02:12:34;96926.72;;;22.34;40.68
50057;BME280;36875;49.468;11.200;2024-03-25T02:14:59;96925.00;;;22.29;40.74
50057;BME280;36875;49.468;11.200;2024-03-25T02:17:27;96929.25;;;22.27;40.95
50057;BME280;36875;49.468;11.200;2024-03-25T02:19:53;96924.94;;;22.26;40.56
50057;BME280;36875;49.468;11.200;2024-03-25T02:22:18;96920.13;;;22.23;40.54
50057;BME280;36875;49.468;11.200;2024-03-25T02:24:45;96930.44;;;22.26;40.56
50057;BME280;36875;49.468;11.200;2024-03-25T02:27:13;96930.97;;;22.19;40.70
50057;BME280;36875;49.468;11.200;2024-03-25T02:29:40;96935.56;;;22.15;40.42
50057;BME280;36875;49.468;11.200;2024-03-25T02:32:06;96937.50;;;22.14;40.58
50057;BME280;36875;49.468;11.200;2024-03-25T02:34:32;96935.91;;;22.13;40.50
50057;BME280;36875;49.468;11.200;2024-03-25T02:36:57;96939.34;;;22.10;40.67
50057;BME280;36875;49.468;11.200;2024-03-25T02:39:23;96933.75;;;22.07;40.69
50057;BME280;36875;49.468;11.200;2024-03-25T02:41:49;96925.09;;;22.05;40.74
50057;BME280;36875;49.468;11.200;2024-03-25T02:44:16;96942.31;;;22.05;40.57
50057;BME280;36875;49.468;11.200;2024-03-25T02:46:42;96937.56;;;22.02;40.87
50057;BME280;36875;49.468;11.200;2024-03-25T02:49:08;96930.03;;;21.99;40.56
50057;BME280;36875;49.468;11.200;2024-03-25T02:51:34;96926.84;;;21.97;40.50
50057;BME280;36875;49.468;11.200;2024-03-25T02:53:59;96926.75;;;21.93;40.59
50057;BME280;36875;49.468;11.200;2024-03-25T02:56:25;96922.06;;;21.94;40.49
50057;BME280;36875;49.468;11.200;2024-03-25T02:58:50;96927.88;;;21.92;40.64
50057;BME280;36875;49.468;11.200;2024-03-25T03:01:18;96930.50;;;21.89;40.64
50057;BME280;36875;49.468;11.200;2024-03-25T03:03:43;96935.53;;;21.87;40.79
50057;BME280;36875;49.468;11.200;2024-03-25T03:06:09;96935.44;;;21.83;40.76
50057;BME280;36875;49.468;11.200;2024-03-25T03:08:34;96931.47;;;21.81;40.67
50057;BME280;36875;49.468;11.200;2024-03-25T03:11:00;96929.84;;;21.80;40.61
50057;BME280;36875;49.468;11.200;2024-03-25T03:13:25;96936.16;;;21.80;40.68
50057;BME280;36875;49.468;11.200;2024-03-25T03:15:51;96938.34;;;21.74;40.52
50057;BME280;36875;49.468;11.200;2024-03-25T03:18:18;96950.41;;;21.73;40.58
50057;BME280;36875;49.468;11.200;2024-03-25T03:20:43;96946.88;;;21.73;40.64
50057;BME280;36875;49.468;11.200;2024-03-25T03:23:09;96960.13;;;21.71;40.49
50057;BME280;36875;49.468;11.200;2024-03-25T03:25:34;96950.66;;;21.68;40.47
50057;BME280;36875;49.468;11.200;2024-03-25T03:28:00;96961.59;;;21.68;40.51
50057;BME280;36875;49.468;11.200;2024-03-25T03:30:25;96964.34;;;21.68;40.21
50057;BME280;36875;49.468;11.200;2024-03-25T03:32:51;96959.09;;;21.63;40.54
50057;BME280;36875;49.468;11.200;2024-03-25T03:35:18;96959.81;;;21.60;40.58
50057;BME280;36875;49.468;11.200;2024-03-25T03:37:43;96965.28;;;21.60;40.50
50057;BME280;36875;49.468;11.200;2024-03-25T03:40:09;96964.38;;;21.56;40.52
50057;BME280;36875;49.468;11.200;2024-03-25T03:42:36;96948.19;;;21.51;40.67
50057;BME280;36875;49.468;11.200;2024-03-25T03:45:02;96960.38;;;21.53;40.40
50057;BME280;36875;49.468;11.200;2024-03-25T03:47:28;96971.31;;;21.53;40.38
50057;BME280;36875;49.468;11.200;2024-03-25T03:49:53;96971.22;;;21.50;40.35
50057;BME280;36875;49.468;11.200;2024-03-25T03:52:20;96968.03;;;21.48;40.55
50057;BME280;36875;49.468;11.200;2024-03-25T03:54:46;96978.03;;;21.44;40.60
50057;BME280;36875;49.468;11.200;2024-03-25T03:57:12;96972.91;;;21.42;40.51
50057;BME280;36875;49.468;11.200;2024-03-25T03:59:37;96975.97;;;21.41;40.47
50057;BME280;36875;49.468;11.200;2024-03-25T04:02:02;96977.94;;;21.40;40.53
50057;BME280;36875;49.468;11.200;2024-03-25T04:04:28;96982.13;;;21.37;40.54
50057;BME280;36875;49.468;11.200;2024-03-25T04:06:53;96978.94;;;21.35;40.37
50057;BME280;36875;49.468;11.200;2024-03-25T04:09:20;96988.97;;;21.31;40.46
50057;BME280;36875;49.468;11.200;2024-03-25T04:11:46;96977.13;;;21.27;40.35
50057;BME280;36875;49.468;11.200;2024-03-25T04:14:11;96990.59;;;21.32;40.37
50057;BME280;36875;49.468;11.200;2024-03-25T04:16:37;96989.31;;;21.30;40.42
50057;BME280;36875;49.468;11.200;2024-03-25T04:19:02;96992.31;;;21.25;40.34
50057;BME280;36875;49.468;11.200;2024-03-25T04:21:28;96995.38;;;21.23;40.64
50057;BME280;36875;49.468;11.200;2024-03-25T04:23:53;96987.84;;;21.20;40.23
50057;BME280;36875;49.468;11.200;2024-03-25T04:26:20;96996.06;;;21.20;40.42
50057;BME280;36875;49.468;11.200;2024-03-25T04:28:46;96997.53;;;21.17;40.55
50057;BME280;36875;49.468;11.200;2024-03-25T04:31:11;96995.94;;;21.16;40.43
50057;BME280;36875;49.468;11.200;2024-03-25T04:33:37;96998.22;;;21.14;40.58
50057;BME280;36875;49.468;11.200;2024-03-25T04:36:03;97003.56;;;21.11;40.46
50057;BME280;36875;49.468;11.200;2024-03-25T04:38:29;96999.94;;;21.07;40.40
50057;BME280;36875;49.468;11.200;2024-03-25T04:40:54;97005.41;;;21.07;40.53
50057;BME280;36875;49.468;11.200;2024-03-25T04:43:21;97000.25;;;21.05;40.31
50057;BME280;36875;49.468;11.200;2024-03-25T04:45:47;97005.28;;;21.03;40.52
50057;BME280;36875;49.468;11.200;2024-03-25T04:48:12;97008.34;;;21.02;40.51
50057;BME280;36875;49.468;11.200;2024-03-25T04:50:38;97012.56;;;20.99;40.64
50057;BME280;36875;49.468;11.200;2024-03-25T04:53:03;97003.88;;;20.97;40.30
50057;BME280;36875;49.468;11.200;2024-03-25T04:55:29;97003.09;;;20.96;40.25
50057;BME280;36875;49.468;11.200;2024-03-25T04:57:54;97012.44;;;20.95;40.55
50057;BME280;36875;49.468;11.200;2024-03-25T05:00:21;97016.66;;;20.93;40.26
50057;BME280;36875;49.468;11.200;2024-03-25T05:02:46;97003.31;;;20.91;40.34
50057;BME280;36875;49.468;11.200;2024-03-25T05:05:12;97022.44;;;20.91;40.31
50057;BME280;36875;49.468;11.200;2024-03-25T05:07:37;97019.25;;;20.89;40.27
50057;BME280;36875;49.468;11.200;2024-03-25T05:10:03;97018.78;;;20.87;40.21
50057;BME280;36875;49.468;11.200;2024-03-25T05:12:29;97020.63;;;20.83;40.29
50057;BME280;36875;49.468;11.200;2024-03-25T05:14:55;97015.16;;;20.83;40.49
50057;BME280;36875;49.468;11.200;2024-03-25T05:17:22;97020.63;;;20.83;40.31
50057;BME280;36875;49.468;11.200;2024-03-25T05:19:47;97031.09;;;20.81;40.50
50057;BME280;36875;49.468;11.200;2024-03-25T05:22:13;97033.38;;;20.79;40.43
50057;BME280;36875;49.468;11.200;2024-03-25T05:24:38;97036.09;;;20.79;40.18
50057;BME280;36875;49.468;11.200;2024-03-25T05:27:04;97036.78;;;20.76;40.10
50057;BME280;36875;49.468;11.200;2024-03-25T05:29:30;97035.16;;;20.75;40.20
50057;BME280;36875;49.468;11.200;2024-03-25T05:31:57;97029.56;;;20.71;40.22
50057;BME280;36875;49.468;11.200;2024-03-25T05:34:26;97036.97;;;20.71;40.47
50057;BME280;36875;49.468;11.200;2024-03-25T05:36:52;97027.56;;;20.59;40.56
50057;BME280;36875;49.468;11.200;2024-03-25T05:39:18;97043.13;;;20.68;40.35
50057;BME280;36875;49.468;11.200;2024-03-25T05:41:44;97044.59;;;20.65;40.27
50057;BME280;36875;49.468;11.200;2024-03-25T05:44:09;97050.38;;;20.64;40.38
50057;BME280;36875;49.468;11.200;2024-03-25T05:46:35;97046.88;;;20.63;40.49
50057;BME280;36875;49.468;11.200;2024-03-25T05:49:03;97048.00;;;20.62;40.10
50057;BME280;36875;49.468;11.200;2024-03-25T05:51:31;97051.88;;;20.61;40.23
50057;BME280;36875;49.468;11.200;2024-03-25T05:53:59;97051.72;;;20.57;40.25
50057;BME280;36875;49.468;11.200;2024-03-25T05:56:24;97054.44;;;20.57;40.13
50057;BME280;36875;49.468;11.200;2024-03-25T05:58:55;97056.72;;;20.55;40.17
50057;BME280;36875;49.468;11.200;2024-03-25T06:01:21;97054.97;;;20.51;40.50
50057;BME280;36875;49.468;11.200;2024-03-25T06:03:47;97053.84;;;20.52;40.52
50057;BME280;36875;49.468;11.200;2024-03-25T06:06:12;97057.59;;;20.47;40.41
50057;BME280;36875;49.468;11.200;2024-03-25T06:08:39;97059.84;;;20.45;40.36
50057;BME280;36875;49.468;11.200;2024-03-25T06:11:04;97069.19;;;20.44;40.34
50057;BME280;36875;49.468;11.200;2024-03-25T06:13:30;97066.25;;;20.49;40.10
50057;BME280;36875;49.468;11.200;2024-03-25T06:15:55;97068.41;;;20.65;40.08
50057;BME280;36875;49.468;11.200;2024-03-25T06:18:21;97065.75;;;20.89;39.65
50057;BME280;36875;49.468;11.200;2024-03-25T06:20:46;97064.78;;;21.18;39.19
50057;BME280;36875;49.468;11.200;2024-03-25T06:23:22;97061.31;;;21.55;38.59
50057;BME280;36875;49.468;11.200;2024-03-25T06:25:49;97061.31;;;21.80;38.25
50057;BME280;36875;49.468;11.200;2024-03-25T06:28:15;97054.94;;;21.88;37.83
50057;BME280;36875;49.468;11.200;2024-03-25T06:30:40;97060.81;;;22.27;36.96
50057;BME280;36875;49.468;11.200;2024-03-25T06:33:24;97062.19;;;22.61;36.17
50057;BME280;36875;49.468;11.200;2024-03-25T06:36:08;97057.56;;;22.94;35.55
50057;BME280;36875;49.468;11.200;2024-03-25T06:38:34;97054.28;;;23.16;35.26
50057;BME280;36875;49.468;11.200;2024-03-25T06:41:00;97059.78;;;23.48;34.45
50057;BME280;36875;49.468;11.200;2024-03-25T06:43:26;97075.66;;;23.55;34.61
50057;BME280;36875;49.468;11.200;2024-03-25T06:45:52;97081.75;;;23.80;34.08
50057;BME280;36875;49.468;11.200;2024-03-25T06:48:17;97085.19;;;23.77;34.50
50057;BME280;36875;49.468;11.200;2024-03-25T06:50:52;97088.50;;;23.82;34.23
50057;BME280;36875;49.468;11.200;2024-03-25T06:53:17;97093.34;;;23.89;34.29
50057;BME280;36875;49.468;11.200;2024-03-25T06:55:50;97092.81;;;23.83;34.59
50057;BME280;36875;49.468;11.200;2024-03-25T06:58:18;97098.41;;;23.87;34.35
50057;BME280;36875;49.468;11.200;2024-03-25T07:00:44;97096.31;;;23.80;34.41
50057;BME280;36875;49.468;11.200;2024-03-25T07:03:09;97099.28;;;23.91;34.48
50057;BME280;36875;49.468;11.200;2024-03-25T07:05:35;97095.06;;;24.13;34.31
50057;BME280;36875;49.468;11.200;2024-03-25T07:08:00;97101.03;;;24.15;34.25
50057;BME280;36875;49.468;11.200;2024-03-25T07:10:26;97099.41;;;24.30;33.32
50057;BME280;36875;49.468;11.200;2024-03-25T07:12:51;97101.78;;;24.32;32.21
50057;BME280;36875;49.468;11.200;2024-03-25T07:15:18;97097.59;;;24.38;31.49
50057;BME280;36875;49.468;11.200;2024-03-25T07:17:43;97094.00;;;24.53;31.19
50057;BME280;36875;49.468;11.200;2024-03-25T07:20:09;97097.13;;;24.71;30.93
50057;BME280;36875;49.468;11.200;2024-03-25T07:22:36;97103.13;;;24.57;31.75
50057;BME280;36875;49.468;11.200;2024-03-25T07:25:01;97100.59;;;24.68;31.53
50057;BME280;36875;49.468;11.200;2024-03-25T07:27:27;97100.44;;;24.61;31.73
50057;BME280;36875;49.468;11.200;2024-03-25T07:29:52;97111.91;;;24.63;31.93
50057;BME280;36875;49.468;11.200;2024-03-25T07:32:19;97106.84;;;24.65;31.62
50057;BME280;36875;49.468;11.200;2024-03-25T07:34:45;97100.09;;;24.62;31.87
50057;BME280;36875;49.468;11.200;2024-03-25T07:37:11;97102.75;;;24.59;31.82
50057;BME280;36875;49.468;11.200;2024-03-25T07:39:36;97103.19;;;24.61;31.99
50057;BME280;36875;49.468;11.200;2024-03-25T07:42:02;97100.22;;;24.50;32.11
50057;BME280;36875;49.468;11.200;2024-03-25T07:44:28;97100.31;;;24.54;32.23
50057;BME280;36875;49.468;11.200;2024-03-25T07:46:53;97101.91;;;24.55;32.15
50057;BME280;36875;49.468;11.200;2024-03-25T07:49:22;97110.41;;;24.50;32.18
50057;BME280;36875;49.468;11.200;2024-03-25T07:51:47;97106.19;;;24.52;32.58
50057;BME280;36875;49.468;11.200;2024-03-25T07:54:13;97098.97;;;24.48;32.29
50057;BME280;36875;49.468;11.200;2024-03-25T07:56:41;97094.97;;;24.25;32.55
50057;BME280;36875;49.468;11.200;2024-03-25T07:59:07;97117.34;;;24.43;32.30
50057;BME280;36875;49.468;11.200;2024-03-25T08:01:32;97112.13;;;24.38;32.59
50057;BME280;36875;49.468;11.200;2024-03-25T08:03:58;97119.88;;;24.33;32.26
50057;BME280;36875;49.468;11.200;2024-03-25T08:06:25;97114.84;;;24.19;32.79
50057;BME280;36875;49.468;11.200;2024-03-25T08:08:50;97122.94;;;24.12;33.10
50057;BME280;36875;49.468;11.200;2024-03-25T08:11:16;97124.78;;;24.08;33.13
50057;BME280;36875;49.468;11.200;2024-03-25T08:13:41;97120.09;;;24.08;32.88
50057;BME280;36875;49.468;11.200;2024-03-25T08:16:07;97105.69;;;23.95;32.91
50057;BME280;36875;49.468;11.200;2024-03-25T08:18:33;97130.63;;;24.22;33.07
50057;BME280;36875;49.468;11.200;2024-03-25T08:20:59;97131.19;;;24.12;32.85
50057;BME280;36875;49.468;11.200;2024-03-25T08:23:26;97128.88;;;24.14;33.07
50057;BME280;36875;49.468;11.200;2024-03-25T08:25:51;97128.88;;;23.98;33.22
50057;BME280;36875;49.468;11.200;2024-03-25T08:28:17;97123.41;;;23.98;33.35
50057;BME280;36875;49.468;11.200;2024-03-25T08:30:42;97124.56;;;23.97;33.25
50057;BME280;36875;49.468;11.200;2024-03-25T08:33:08;97119.69;;;23.90;33.73
50057;BME280;36875;49.468;11.200;2024-03-25T08:35:33;97119.69;;;23.90;33.61
50057;BME280;36875;49.468;11.200;2024-03-25T08:37:59;97087.16;;;23.60;34.00
50057;BME280;36875;49.468;11.200;2024-03-25T08:40:26;97119.75;;;23.78;33.67
50057;BME280;36875;49.468;11.200;2024-03-25T08:42:52;97114.97;;;23.75;33.87
50057;BME280;36875;49.468;11.200;2024-03-25T08:45:17;97117.34;;;23.76;33.87
50057;BME280;36875;49.468;11.200;2024-03-25T08:47:43;97112.94;;;23.72;33.90
50057;BME280;36875;49.468;11.200;2024-03-25T08:50:09;97112.66;;;23.61;34.38
50057;BME280;36875;49.468;11.200;2024-03-25T08:52:34;97119.69;;;23.58;34.58
50057;BME280;36875;49.468;11.200;2024-03-25T08:55:01;97119.31;;;23.44;34.22
50057;BME280;36875;49.468;11.200;2024-03-25T08:57:27;97121.22;;;23.27;33.84
50057;BME280;36875;49.468;11.200;2024-03-25T08:59:53;97113.25;;;23.22;32.88
50057;BME280;36875;49.468;11.200;2024-03-25T09:02:18;97115.13;;;23.34;32.74
50057;BME280;36875;49.468;11.200;2024-03-25T09:04:44;97120.53;;;23.31;33.13
50057;BME280;36875;49.468;11.200;2024-03-25T09:07:10;97121.47;;;23.22;33.29
50057;BME280;36875;49.468;11.200;2024-03-25T09:09:35;97120.16;;;23.16;33.18
50057;BME280;36875;49.468;11.200;2024-03-25T09:12:20;97111.28;;;23.07;33.44
50057;BME280;36875;49.468;11.200;2024-03-25T09:14:47;97111.28;;;23.07;33.27
50057;BME280;36875;49.468;11.200;2024-03-25T09:17:12;97107.38;;;23.08;33.41
50057;BME280;36875;49.468;11.200;2024-03-25T09:19:38;97114.91;;;23.11;33.48
50057;BME280;36875;49.468;11.200;2024-03-25T09:22:04;97113.22;;;23.06;33.71
50057;BME280;36875;49.468;11.200;2024-03-25T09:24:30;97113.34;;;22.98;33.81
50057;BME280;36875;49.468;11.200;2024-03-25T09:26:55;97117.13;;;22.93;34.03
50057;BME280;36875;49.468;11.200;2024-03-25T09:29:21;97110.66;;;22.85;34.16
50057;BME280;36875;49.468;11.200;2024-03-25T09:31:48;97114.53;;;22.84;34.34
50057;BME280;36875;49.468;11.200;2024-03-25T09:34:13;97106.69;;;22.83;34.38
50057;BME280;36875;49.468;11.200;2024-03-25T09:36:40;97115.16;;;22.78;34.44
50057;BME280;36875;49.468;11.200;2024-03-25T09:39:08;97113.44;;;22.73;34.48
50057;BME280;36875;49.468;11.200;2024-03-25T09:41:35;97106.19;;;22.65;34.94
50057;BME280;36875;49.468;11.200;2024-03-25T09:44:03;97106.72;;;22.70;34.78
50057;BME280;36875;49.468;11.200;2024-03-25T09:46:31;97114.59;;;22.72;34.61
50057;BME280;36875;49.468;11.200;2024-03-25T09:48:58;97103.44;;;22.65;34.79
50057;BME280;36875;49.468;11.200;2024-03-25T09:51:24;97103.78;;;22.63;34.89
50057;BME280;36875;49.468;11.200;2024-03-25T09:53:50;97100.13;;;22.59;34.91
50057;BME280;36875;49.468;11.200;2024-03-25T09:56:15;97101.63;;;22.57;34.97
50057;BME280;36875;49.468;11.200;2024-03-25T09:58:42;97103.47;;;22.52;35.13
50057;BME280;36875;49.468;11.200;2024-03-25T10:01:09;97086.81;;;22.45;35.21
50057;BME280;36875;49.468;11.200;2024-03-25T10:03:35;97098.56;;;22.46;35.21
50057;BME280;36875;49.468;11.200;2024-03-25T10:06:02;97086.00;;;22.45;35.25
50057;BME280;36875;49.468;11.200;2024-03-25T10:08:28;97088.50;;;22.50;35.19
50057;BME280;36875;49.468;11.200;2024-03-25T10:10:56;97089.78;;;22.40;35.16
50057;BME280;36875;49.468;11.200;2024-03-25T10:13:22;97085.00;;;22.37;35.24
50057;BME280;36875;49.468;11.200;2024-03-25T10:15:48;97076.78;;;22.37;35.47
50057;BME280;36875;49.468;11.200;2024-03-25T10:18:14;97077.22;;;22.39;35.32
50057;BME280;36875;49.468;11.200;2024-03-25T10:20:47;97072.78;;;22.35;35.58
50057;BME280;36875;49.468;11.200;2024-03-25T10:23:14;97073.72;;;22.26;35.51
50057;BME280;36875;49.468;11.200;2024-03-25T10:25:40;97055.44;;;22.18;35.52
50057;BME280;36875;49.468;11.200;2024-03-25T10:28:05;97063.06;;;22.25;35.52
50057;BME280;36875;49.468;11.200;2024-03-25T10:30:32;97067.19;;;22.31;35.41
50057;BME280;36875;49.468;11.200;2024-03-25T10:32:59;97062.97;;;22.33;35.41
50057;BME280;36875;49.468;11.200;2024-03-25T10:35:27;97058.72;;;22.36;35.13
50057;BME280;36875;49.468;11.200;2024-03-25T10:37:55;97050.88;;;22.22;35.40
50057;BME280;36875;49.468;11.200;2024-03-25T10:40:23;97054.63;;;22.18;35.61
50057;BME280;36875;49.468;11.200;2024-03-25T10:42:51;97049.56;;;22.04;34.86
50057;BME280;36875;49.468;11.200;2024-03-25T10:45:17;97048.38;;;22.05;33.91
50057;BME280;36875;49.468;11.200;2024-03-25T10:47:42;97029.94;;;21.89;34.46
50057;BME280;36875;49.468;11.200;2024-03-25T10:50:09;97046.09;;;21.94;34.84
50057;BME280;36875;49.468;11.200;2024-03-25T10:52:39;97045.78;;;21.96;34.91
50057;BME280;36875;49.468;11.200;2024-03-25T10:55:06;97036.66;;;21.92;35.17
50057;BME280;36875;49.468;11.200;2024-03-25T10:57:34;97029.34;;;21.96;35.25
50057;BME280;36875;49.468;11.200;2024-03-25T11:00:01;97020.22;;;21.80;35.39
50057;BME280;36875;49.468;11.200;2024-03-25T11:02:29;97022.28;;;21.83;35.68
50057;BME280;36875;49.468;11.200;2024-03-25T11:04:55;97023.78;;;21.80;35.74
50057;BME280;36875;49.468;11.200;2024-03-25T11:07:30;97022.06;;;21.75;36.15
50057;BME280;36875;49.468;11.200;2024-03-25T11:10:03;97018.88;;;21.73;36.06
50057;BME280;36875;49.468;11.200;2024-03-25T11:12:37;97014.19;;;21.86;35.79
50057;BME280;36875;49.468;11.200;2024-03-25T11:15:03;97022.50;;;21.78;36.12
50057;BME280;36875;49.468;11.200;2024-03-25T11:17:30;97017.50;;;21.80;36.04
50057;BME280;36875;49.468;11.200;2024-03-25T11:20:08;97007.59;;;21.75;36.18
50057;BME280;36875;49.468;11.200;2024-03-25T11:22:33;97002.69;;;21.68;36.42
50057;BME280;36875;49.468;11.200;2024-03-25T11:25:05;96995.28;;;21.56;35.98
50057;BME280;36875;49.468;11.200;2024-03-25T11:27:32;97005.56;;;21.60;36.52
50057;BME280;36875;49.468;11.200;2024-03-25T11:29:59;97005.31;;;21.65;36.32
50057;BME280;36875;49.468;11.200;2024-03-25T11:32:26;96999.72;;;21.61;36.47
50057;BME280;36875;49.468;11.200;2024-03-25T11:34:52;96995.97;;;21.66;36.39
50057;BME280;36875;49.468;11.200;2024-03-25T11:37:18;96989.22;;;21.63;36.31
50057;BME280;36875;49.468;11.200;2024-03-25T11:39:43;96984.41;;;21.72;36.26
50057;BME280;36875;49.468;11.200;2024-03-25T11:42:09;96987.16;;;21.72;36.13
50057;BME280;36875;49.468;11.200;2024-03-25T11:44:36;96981.88;;;21.80;36.15
50057;BME280;36875;49.468;11.200;2024-03-25T11:47:07;96983.38;;;21.77;36.25
50057;BME280;36875;49.468;11.200;2024-03-25T11:49:32;96977.22;;;21.80;36.30
50057;BME280;36875;49.468;11.200;2024-03-25T11:51:58;96978.25;;;21.75;36.41
50057;BME280;36875;49.468;11.200;2024-03-25T11:54:27;96979.84;;;21.77;36.33
50057;BME280;36875;49.468;11.200;2024-03-25T11:56:53;96978.34;;;21.79;36.22
50057;BME280;36875;49.468;11.200;2024-03-25T11:59:19;96981.44;;;21.78;36.42
50057;BME280;36875;49.468;11.200;2024-03-25T12:01:44;96975.50;;;21.75;36.47
50057;BME280;36875;49.468;11.200;2024-03-25T12:04:12;96974.38;;;21.77;36.49
50057;BME280;36875;49.468;11.200;2024-03-25T12:06:37;96972.78;;;21.75;36.51
50057;BME280;36875;49.468;11.200;2024-03-25T12:09:03;96965.13;;;21.81;36.49
50057;BME280;36875;49.468;11.200;2024-03-25T12:11:47;96963.19;;;21.82;36.53
50057;BME280;36875;49.468;11.200;2024-03-25T12:14:13;96963.19;;;21.82;36.51
50057;BME280;36875;49.468;11.200;2024-03-25T12:16:38;96957.34;;;21.83;36.70
50057;BME280;36875;49.468;11.200;2024-03-25T12:19:04;96955.78;;;21.82;36.43
50057;BME280;36875;49.468;11.200;2024-03-25T12:21:31;96956.56;;;21.83;36.59
50057;BME280;36875;49.468;11.200;2024-03-25T12:23:57;96945.59;;;21.83;36.69
50057;BME280;36875;49.468;11.200;2024-03-25T12:26:24;96946.38;;;21.83;36.82
50057;BME280;36875;49.468;11.200;2024-03-25T12:28:49;96949.41;;;21.78;36.94
50057;BME280;36875;49.468;11.200;2024-03-25T12:31:15;96935.44;;;21.83;36.97
50057;BME280;36875;49.468;11.200;2024-03-25T12:33:41;96929.97;;;21.83;37.04
50057;BME280;36875;49.468;11.200;2024-03-25T12:36:07;96930.34;;;21.82;36.97
50057;BME280;36875;49.468;11.200;2024-03-25T12:38:35;96925.53;;;21.79;36.99
50057;BME280;36875;49.468;11.200;2024-03-25T12:41:04;96923.59;;;21.79;37.16
50057;BME280;36875;49.468;11.200;2024-03-25T12:43:31;96924.38;;;21.80;37.12
50057;BME280;36875;49.468;11.200;2024-03-25T12:45:57;96918.09;;;21.79;37.11